createdAt,value
2022-11-19T00:01:28.387Z,98806.09
2022-11-19T00:03:56.124Z,98812.09
2022-11-19T00:06:27.546Z,98819.09
2022-11-19T00:08:55.425Z,98828.63
2022-11-19T00:11:45.949Z,98829.19
2022-11-19T00:14:15.062Z,98832.22
2022-11-19T00:16:44.095Z,98840.19
2022-11-19T00:19:11.932Z,98846.16
2022-11-19T00:21:39.279Z,98850.19
2022-11-19T00:24:07.464Z,98848.19
2022-11-19T00:26:34.890Z,98860.41
2022-11-19T00:29:02.270Z,98857.87
2022-11-19T00:31:29.866Z,98863.22
2022-11-19T00:33:58.179Z,98859.66
2022-11-19T00:36:25.491Z,98864.41
2022-11-19T00:38:53.063Z,98854.38
2022-11-19T00:41:20.495Z,98857.72
2022-11-19T00:43:48.095Z,98850.69
2022-11-19T00:46:18.095Z,98858.06
2022-11-19T00:48:46.520Z,98861.44
2022-11-19T00:51:14.555Z,98867.56
2022-11-19T00:53:42.132Z,98861.12
2022-11-19T00:56:11.507Z,98869.19
2022-11-19T00:58:38.987Z,98881.44
2022-11-19T01:01:07.302Z,98890.44
2022-11-19T01:03:35.017Z,98901.84
2022-11-19T01:06:02.709Z,98899.94
2022-11-19T01:08:30.441Z,98919.56
2022-11-19T01:11:05.204Z,98932.03
2022-11-19T01:13:35.988Z,98935.97
2022-11-19T01:16:05.893Z,98936.44
2022-11-19T01:18:33.997Z,98941.31
2022-11-19T01:21:01.441Z,98949.50
2022-11-19T01:23:28.816Z,98954.91
2022-11-19T01:25:56.475Z,98960.38
2022-11-19T01:28:24.250Z,98955.50
2022-11-19T01:30:52.593Z,98966.22
2022-11-19T01:33:20.421Z,98970.28
2022-11-19T01:36:01.349Z,98964.78
2022-11-19T01:38:29.524Z,98960.38
2022-11-19T01:40:57.626Z,98962.16
2022-11-19T01:43:49.000Z,98951.19
2022-11-19T01:46:24.475Z,98962.78
2022-11-19T01:48:55.734Z,98966.06
2022-11-19T01:51:25.161Z,98974.00
2022-11-19T01:56:39.720Z,98987.44
2022-11-19T01:59:10.708Z,98990.19
2022-11-19T02:01:38.132Z,98993.06
2022-11-19T02:04:07.350Z,98989.16
2022-11-19T02:06:34.861Z,99000.41
2022-11-19T02:09:02.248Z,99022.03
2022-11-19T02:11:52.407Z,99031.63
2022-11-19T02:14:42.541Z,99039.16
2022-11-19T02:17:22.973Z,99034.28
2022-11-19T02:20:29.335Z,99029.12
2022-11-19T02:23:16.368Z,99032.13
2022-11-19T02:26:04.691Z,99027.38
2022-11-19T02:28:38.642Z,99024.91
2022-11-19T02:31:10.646Z,99024.47
2022-11-19T02:33:46.772Z,99040.37
2022-11-19T02:36:19.426Z,99067.00
2022-11-19T02:38:51.907Z,99075.59
2022-11-19T02:41:44.415Z,99084.66
2022-11-19T02:44:41.228Z,99080.03
2022-11-19T02:47:12.811Z,99104.09
2022-11-19T02:49:43.439Z,99106.81
2022-11-19T02:52:12.301Z,99108.41
2022-11-19T02:54:39.939Z,99106.06
2022-11-19T02:57:09.791Z,99105.31
2022-11-19T02:59:59.731Z,99099.41
2022-11-19T03:02:53.980Z,99098.69
2022-11-19T03:05:26.011Z,99094.22
2022-11-19T03:07:53.745Z,99117.25
2022-11-19T03:10:23.426Z,99125.91
2022-11-19T03:12:55.033Z,99119.56
2022-11-19T03:15:44.220Z,99129.47
2022-11-19T03:18:27.770Z,99133.47
2022-11-19T03:21:00.890Z,99149.59
2022-11-19T03:23:53.355Z,99139.72
2022-11-19T03:26:27.026Z,99125.81
2022-11-19T03:28:56.442Z,99145.44
2022-11-19T03:31:26.150Z,99147.84
2022-11-19T03:33:57.492Z,99149.66
2022-11-19T03:36:35.765Z,99146.87
2022-11-19T03:39:05.919Z,99157.69
2022-11-19T03:41:35.462Z,99147.87
2022-11-19T03:44:08.105Z,99166.72
2022-11-19T03:46:37.422Z,99165.34
2022-11-19T03:49:05.951Z,99160.88
2022-11-19T03:51:48.228Z,99171.03
2022-11-19T03:54:16.017Z,99181.94
2022-11-19T03:56:45.127Z,99174.69
2022-11-19T03:59:13.008Z,99182.94
2022-11-19T04:01:40.698Z,99193.69
2022-11-19T04:04:27.184Z,99180.81
2022-11-19T04:06:54.604Z,99185.69
2022-11-19T04:09:22.450Z,99178.75
2022-11-19T04:14:16.130Z,99213.03
2022-11-19T04:16:43.784Z,99208.31
2022-11-19T04:19:11.093Z,99224.31
2022-11-19T04:21:38.394Z,99215.87
2022-11-19T04:24:06.723Z,99225.63
2022-11-19T04:26:34.203Z,99219.84
2022-11-19T04:29:01.697Z,99248.84
2022-11-19T04:31:29.413Z,99260.63
2022-11-19T04:33:56.766Z,99251.28
2022-11-19T04:36:24.129Z,99252.22
2022-11-19T04:38:51.738Z,99255.88
2022-11-19T04:41:19.052Z,99258.88
2022-11-19T04:43:46.514Z,99268.41
2022-11-19T04:46:14.120Z,99276.66
2022-11-19T04:48:41.442Z,99285.50
2022-11-19T04:51:08.783Z,99285.37
2022-11-19T04:53:36.405Z,99290.16
2022-11-19T04:56:03.861Z,99300.97
2022-11-19T04:58:31.201Z,99309.56
2022-11-19T05:00:58.848Z,99317.13
2022-11-19T05:03:28.546Z,99318.69
2022-11-19T05:05:56.193Z,99328.78
2022-11-19T05:08:24.123Z,99322.13
2022-11-19T05:10:51.680Z,99324.84
2022-11-19T05:13:19.000Z,99326.38
2022-11-19T05:15:46.617Z,99334.19
2022-11-19T05:18:14.134Z,99334.59
2022-11-19T05:20:41.492Z,99332.78
2022-11-19T05:23:09.135Z,99337.37
2022-11-19T05:25:36.463Z,99349.25
2022-11-19T05:28:03.870Z,99356.97
2022-11-19T05:30:31.483Z,99351.41
2022-11-19T05:32:58.779Z,99341.88
2022-11-19T05:35:26.275Z,99350.28
2022-11-19T05:37:53.897Z,99341.34
2022-11-19T05:40:21.206Z,99349.62
2022-11-19T05:42:48.555Z,99352.38
2022-11-19T05:45:16.241Z,99363.81
2022-11-19T05:47:48.435Z,99369.53
2022-11-19T05:50:16.503Z,99377.09
2022-11-19T05:52:43.847Z,99388.91
2022-11-19T05:55:11.244Z,99384.31
2022-11-19T05:57:38.816Z,99381.91
2022-11-19T06:00:06.708Z,99388.63
2022-11-19T06:02:40.061Z,99398.00
2022-11-19T06:05:08.248Z,99396.06
2022-11-19T06:07:35.809Z,99406.75
2022-11-19T06:10:03.524Z,99415.81
2022-11-19T06:12:31.658Z,99415.47
2022-11-19T06:14:58.984Z,99414.09
2022-11-19T06:17:26.362Z,99430.75
2022-11-19T06:19:53.952Z,99444.78
2022-11-19T06:22:21.327Z,99445.22
2022-11-19T06:24:48.649Z,99442.66
2022-11-19T06:27:16.252Z,99435.59
2022-11-19T06:29:43.782Z,99447.09
2022-11-19T06:32:11.622Z,99435.00
2022-11-19T06:34:39.202Z,99439.31
2022-11-19T06:37:06.538Z,99449.19
2022-11-19T06:39:33.930Z,99452.41
2022-11-19T06:42:21.841Z,99447.63
2022-11-19T06:44:49.192Z,99460.09
2022-11-19T06:47:16.753Z,99472.56
2022-11-19T06:49:44.142Z,99475.19
2022-11-19T06:52:11.462Z,99458.72
2022-11-19T06:54:42.982Z,99455.09
2022-11-19T06:57:10.683Z,99461.03
2022-11-19T06:59:39.343Z,99453.50
2022-11-19T07:02:07.685Z,99451.78
2022-11-19T07:04:35.076Z,99457.19
2022-11-19T07:07:02.618Z,99463.28
2022-11-19T07:09:30.520Z,99468.75
2022-11-19T07:11:58.092Z,99489.50
2022-11-19T07:14:25.469Z,99492.91
2022-11-19T07:16:53.057Z,99493.16
2022-11-19T07:19:20.544Z,99486.28
2022-11-19T07:21:48.161Z,99473.28
2022-11-19T07:24:17.778Z,99480.09
2022-11-19T07:26:45.125Z,99480.28
2022-11-19T07:29:14.407Z,99490.06
2022-11-19T07:31:42.527Z,99494.00
2022-11-19T07:34:10.953Z,99491.00
2022-11-19T07:36:38.389Z,99496.22
2022-11-19T07:39:06.136Z,99503.50
2022-11-19T07:41:52.500Z,99494.78
2022-11-19T07:44:20.121Z,99486.38
2022-11-19T07:46:47.595Z,99486.41
2022-11-19T07:49:15.180Z,99480.97
2022-11-19T07:51:43.601Z,99482.72
2022-11-19T07:54:12.324Z,99481.59
2022-11-19T07:56:39.997Z,99484.50
2022-11-19T07:59:07.598Z,99488.34
2022-11-19T08:01:35.026Z,99484.41
2022-11-19T08:04:04.327Z,99491.09
2022-11-19T08:06:34.348Z,99485.94
2022-11-19T08:09:02.798Z,99489.97
2022-11-19T08:11:30.790Z,99487.28
2022-11-19T08:14:01.227Z,99488.06
2022-11-19T08:16:47.898Z,99499.19
2022-11-19T08:19:16.265Z,99503.66
2022-11-19T08:21:45.818Z,99505.16
2022-11-19T08:24:14.057Z,99513.69
2022-11-19T08:26:42.409Z,99522.19
2022-11-19T08:29:15.799Z,99527.31
2022-11-19T08:31:45.931Z,99522.75
2022-11-19T08:34:13.646Z,99524.25
2022-11-19T08:36:41.190Z,99536.22
2022-11-19T08:39:08.991Z,99535.59
2022-11-19T08:41:55.197Z,99529.94
2022-11-19T08:44:23.062Z,99536.81
2022-11-19T08:46:50.709Z,99549.78
2022-11-19T08:49:18.120Z,99540.38
2022-11-19T08:51:45.995Z,99543.50
2022-11-19T08:54:13.462Z,99534.66
2022-11-19T08:56:40.831Z,99523.34
2022-11-19T08:59:08.456Z,99524.12
2022-11-19T09:01:35.775Z,99566.75
2022-11-19T09:04:03.104Z,99583.50
2022-11-19T09:06:30.900Z,99590.16
2022-11-19T09:08:58.447Z,99606.88
2022-11-19T09:11:25.867Z,99616.22
2022-11-19T09:13:53.525Z,99623.94
2022-11-19T09:16:20.831Z,99621.19
2022-11-19T09:18:48.215Z,99618.91
2022-11-19T09:21:15.859Z,99627.53
2022-11-19T09:23:45.912Z,99617.56
2022-11-19T09:26:15.959Z,99616.09
2022-11-19T09:28:45.237Z,99608.38
2022-11-19T09:31:18.447Z,99606.53
2022-11-19T09:33:51.516Z,99617.88
2022-11-19T09:36:19.615Z,99609.06
2022-11-19T09:38:47.977Z,99606.63
2022-11-19T09:41:17.958Z,99606.63
2022-11-19T09:44:12.866Z,99626.66
2022-11-19T09:46:58.872Z,99635.69
2022-11-19T09:49:36.294Z,99635.47
2022-11-19T09:52:07.053Z,99641.94
2022-11-19T09:54:37.819Z,99644.31
2022-11-19T09:57:10.275Z,99637.09
2022-11-19T09:59:41.444Z,99635.69
2022-11-19T10:02:20.680Z,99644.31
2022-11-19T10:04:49.916Z,99630.19
2022-11-19T10:07:28.701Z,99630.31
2022-11-19T10:10:12.874Z,99622.50
2022-11-19T10:13:17.082Z,99624.12
2022-11-19T10:16:12.582Z,99621.38
2022-11-19T10:19:28.924Z,99621.97
2022-11-19T10:22:11.413Z,99626.97
2022-11-19T10:25:12.228Z,99623.53
2022-11-19T10:27:51.684Z,99611.87
2022-11-19T10:30:21.645Z,99605.78
2022-11-19T10:33:00.778Z,99604.72
2022-11-19T10:35:37.222Z,99616.16
2022-11-19T10:38:19.038Z,99605.97
2022-11-19T10:40:59.192Z,99608.91
2022-11-19T10:43:38.429Z,99608.06
2022-11-19T10:46:09.916Z,99600.16
2022-11-19T10:48:43.425Z,99610.94
2022-11-19T10:51:21.605Z,99616.69
2022-11-19T10:53:51.049Z,99610.06
2022-11-19T10:56:21.768Z,99613.94
2022-11-19T10:58:53.268Z,99610.88
2022-11-19T11:01:32.970Z,99618.94
2022-11-19T11:04:05.622Z,99612.09
2022-11-19T11:07:00.141Z,99628.47
2022-11-19T11:09:35.119Z,99619.34
2022-11-19T11:12:42.346Z,99626.41
2022-11-19T11:15:18.695Z,99629.06
2022-11-19T11:17:49.483Z,99634.38
2022-11-19T11:20:20.281Z,99620.16
2022-11-19T11:22:50.078Z,99647.56
2022-11-19T11:25:28.234Z,99656.16
2022-11-19T11:28:14.597Z,99656.06
2022-11-19T11:30:52.343Z,99660.38
2022-11-19T11:33:38.549Z,99647.53
2022-11-19T11:36:07.630Z,99647.53
2022-11-19T11:38:52.302Z,99649.06
2022-11-19T11:44:15.395Z,99639.53
2022-11-19T11:46:48.992Z,99637.50
2022-11-19T11:49:39.327Z,99632.56
2022-11-19T11:52:09.909Z,99639.84
2022-11-19T11:54:38.861Z,99641.75
2022-11-19T11:57:18.111Z,99633.28
2022-11-19T11:59:46.177Z,99634.87
2022-11-19T12:02:21.445Z,99641.94
2022-11-19T12:04:51.077Z,99642.22
2022-11-19T12:07:40.861Z,99644.13
2022-11-19T12:10:23.935Z,99639.00
2022-11-19T12:13:23.640Z,99635.63
2022-11-19T12:16:09.967Z,99631.62
2022-11-19T12:18:47.319Z,99619.91
2022-11-19T12:21:33.641Z,99621.56
2022-11-19T12:24:32.498Z,99617.59
2022-11-19T12:27:20.366Z,99616.75
2022-11-19T12:30:18.601Z,99616.97
2022-11-19T12:33:28.637Z,99610.41
2022-11-19T12:36:11.621Z,99595.84
2022-11-19T12:39:00.568Z,99596.75
2022-11-19T12:47:06.462Z,99584.41
2022-11-19T12:49:52.754Z,99584.78
2022-11-19T12:52:41.636Z,99604.50
2022-11-19T12:55:18.055Z,99602.56
2022-11-19T12:58:25.575Z,99603.94
2022-11-19T13:01:15.615Z,99610.59
2022-11-19T13:03:50.292Z,99610.44
2022-11-19T13:06:22.788Z,99607.72
2022-11-19T13:08:54.473Z,99597.78
2022-11-19T13:11:49.121Z,99611.41
2022-11-19T13:14:35.891Z,99611.31
2022-11-19T13:17:05.742Z,99602.28
2022-11-19T13:19:35.819Z,99604.75
2022-11-19T13:22:27.878Z,99619.03
2022-11-19T13:25:25.604Z,99612.50
2022-11-19T13:27:55.094Z,99630.38
2022-11-19T13:30:26.811Z,99623.75
2022-11-19T13:33:12.764Z,99624.06
2022-11-19T13:35:47.546Z,99614.16
2022-11-19T13:38:28.564Z,99635.00
2022-11-19T13:41:04.710Z,99640.22
2022-11-19T13:43:51.038Z,99634.06
2022-11-19T13:46:25.092Z,99635.59
2022-11-19T13:49:13.151Z,99646.41
2022-11-19T13:51:53.546Z,99643.59
2022-11-19T13:54:26.789Z,99649.56
2022-11-19T13:56:56.815Z,99648.00
2022-11-19T13:59:25.619Z,99649.72
2022-11-19T14:02:04.997Z,99639.91
2022-11-19T14:04:52.411Z,99633.44
2022-11-19T14:07:50.117Z,99635.41
2022-11-19T14:10:38.467Z,99637.69
2022-11-19T14:13:08.649Z,99635.28
2022-11-19T14:16:03.925Z,99632.03
2022-11-19T14:18:54.850Z,99633.88
2022-11-19T14:21:44.373Z,99640.44
2022-11-19T14:25:06.149Z,99633.28
2022-11-19T14:27:35.023Z,99629.09
2022-11-19T14:30:09.634Z,99609.06
2022-11-19T14:32:46.967Z,99622.66
2022-11-19T14:35:23.586Z,99623.34
2022-11-19T14:37:57.139Z,99629.31
2022-11-19T14:40:32.586Z,99636.41
2022-11-19T14:43:19.207Z,99628.16
2022-11-19T14:46:03.101Z,99635.19
2022-11-19T14:48:39.630Z,99641.66
2022-11-19T14:51:10.798Z,99654.97
2022-11-19T14:54:04.459Z,99666.00
2022-11-19T14:56:33.273Z,99660.59
2022-11-19T14:59:15.947Z,99667.09
2022-11-19T15:01:57.398Z,99670.34
2022-11-19T15:04:35.188Z,99669.53
2022-11-19T15:07:12.471Z,99663.75
2022-11-19T15:09:52.888Z,99661.47
2022-11-19T15:12:21.778Z,99664.13
2022-11-19T15:15:07.666Z,99664.91
2022-11-19T15:17:35.654Z,99670.03
2022-11-19T15:20:29.557Z,99658.84
2022-11-19T15:23:38.377Z,99658.66
2022-11-19T15:26:38.773Z,99666.25
2022-11-19T15:29:38.088Z,99669.38
2022-11-19T15:32:24.356Z,99669.16
2022-11-19T15:35:11.502Z,99666.34
2022-11-19T15:37:44.588Z,99668.97
2022-11-19T15:40:15.911Z,99663.03
2022-11-19T15:42:50.112Z,99661.84
2022-11-19T15:45:21.187Z,99667.28
2022-11-19T15:48:19.368Z,99665.25
2022-11-19T15:50:47.193Z,99679.97
2022-11-19T15:53:17.407Z,99688.34
2022-11-19T15:55:51.736Z,99685.56
2022-11-19T15:58:22.343Z,99676.66
2022-11-19T16:00:50.705Z,99671.25
2022-11-19T16:03:18.825Z,99662.09
2022-11-19T16:05:59.366Z,99671.28
2022-11-19T16:08:28.535Z,99665.16
2022-11-19T16:11:20.164Z,99666.78
2022-11-19T16:14:11.474Z,99659.03
2022-11-19T16:16:58.551Z,99663.66
2022-11-19T16:19:26.251Z,99670.41
2022-11-19T16:22:03.140Z,99679.28
2022-11-19T16:24:49.686Z,99692.25
2022-11-19T16:27:23.269Z,99700.69
2022-11-19T16:29:51.052Z,99704.94
2022-11-19T16:32:20.042Z,99706.44
2022-11-19T16:34:47.526Z,99709.38
2022-11-19T16:37:17.902Z,99710.34
2022-11-19T16:39:50.719Z,99714.47
2022-11-19T16:42:23.093Z,99723.94
2022-11-19T16:44:54.124Z,99727.41
2022-11-19T16:47:34.582Z,99726.87
2022-11-19T16:50:24.858Z,99730.38
2022-11-19T16:52:52.473Z,99729.66
2022-11-19T16:55:19.882Z,99736.06
2022-11-19T16:57:49.029Z,99730.75
2022-11-19T17:00:22.773Z,99728.78
2022-11-19T17:02:50.985Z,99724.66
2022-11-19T17:05:20.733Z,99733.00
2022-11-19T17:07:49.963Z,99733.31
2022-11-19T17:10:30.495Z,99734.53
2022-11-19T17:13:04.134Z,99724.31
2022-11-19T17:15:36.902Z,99722.03
2022-11-19T17:18:22.786Z,99729.25
2022-11-19T17:20:52.886Z,99721.75
2022-11-19T17:23:25.593Z,99730.91
2022-11-19T17:25:56.227Z,99738.31
2022-11-19T17:28:38.344Z,99743.16
2022-11-19T17:31:14.976Z,99742.66
2022-11-19T17:33:54.668Z,99747.88
2022-11-19T17:36:25.842Z,99758.28
2022-11-19T17:38:53.996Z,99767.28
2022-11-19T17:41:42.194Z,99755.53
2022-11-19T17:44:31.786Z,99751.56
2022-11-19T17:46:59.228Z,99750.97
2022-11-19T17:49:26.939Z,99733.41
2022-11-19T17:51:55.454Z,99741.56
2022-11-19T17:54:24.132Z,99737.34
2022-11-19T17:56:52.068Z,99733.91
2022-11-19T17:59:19.412Z,99724.28
2022-11-19T18:01:48.031Z,99721.81
2022-11-19T18:04:15.902Z,99717.69
2022-11-19T18:06:44.345Z,99718.06
2022-11-19T18:09:11.902Z,99716.78
2022-11-19T18:11:40.414Z,99727.84
2022-11-19T18:14:10.148Z,99724.09
2022-11-19T18:16:39.895Z,99727.25
2022-11-19T18:19:22.653Z,99723.53
2022-11-19T18:21:53.273Z,99719.87
2022-11-19T18:24:21.321Z,99716.16
2022-11-19T18:26:49.819Z,99711.84
2022-11-19T18:29:17.812Z,99706.66
2022-11-19T18:31:48.456Z,99708.41
2022-11-19T18:34:21.378Z,99716.97
2022-11-19T18:36:49.919Z,99721.59
2022-11-19T18:39:18.292Z,99729.91
2022-11-19T18:41:45.740Z,99727.84
2022-11-19T18:44:34.246Z,99735.97
2022-11-19T18:47:13.203Z,99725.00
2022-11-19T18:49:42.453Z,99721.25
2022-11-19T18:52:13.429Z,99704.66
2022-11-19T18:54:41.469Z,99695.25
2022-11-19T18:57:09.859Z,99703.19
2022-11-19T18:59:37.759Z,99704.56
2022-11-19T19:02:07.511Z,99714.84
2022-11-19T19:04:34.976Z,99713.44
2022-11-19T19:07:02.812Z,99721.72
2022-11-19T19:09:30.866Z,99729.13
2022-11-19T19:12:18.343Z,99717.19
2022-11-19T19:14:48.570Z,99701.38
2022-11-19T19:17:16.626Z,99719.16
2022-11-19T19:19:44.804Z,99720.34
2022-11-19T19:22:12.844Z,99728.44
2022-11-19T19:24:40.318Z,99727.28
2022-11-19T19:27:08.065Z,99729.25
2022-11-19T19:29:36.081Z,99728.22
2022-11-19T19:32:04.066Z,99737.53
2022-11-19T19:34:32.988Z,99742.28
2022-11-19T19:37:01.223Z,99741.50
2022-11-19T19:39:28.934Z,99728.66
2022-11-19T19:41:56.936Z,99717.66
2022-11-19T19:44:26.132Z,99712.66
2022-11-19T19:46:54.075Z,99715.09
2022-11-19T19:49:22.525Z,99718.19
2022-11-19T19:51:51.348Z,99709.41
2022-11-19T19:54:19.340Z,99717.19
2022-11-19T19:56:48.565Z,99723.31
2022-11-19T19:59:18.841Z,99728.50
2022-11-19T20:01:47.776Z,99727.66
2022-11-19T20:04:16.104Z,99728.59
2022-11-19T20:06:46.776Z,99731.81
2022-11-19T20:09:14.787Z,99734.91
2022-11-19T20:11:43.090Z,99735.59
2022-11-19T20:14:11.385Z,99744.16
2022-11-19T20:16:41.089Z,99750.78
2022-11-19T20:19:12.926Z,99751.72
2022-11-19T20:21:41.009Z,99757.59
2022-11-19T20:24:12.427Z,99765.88
2022-11-19T20:26:41.015Z,99768.38
2022-11-19T20:29:12.356Z,99763.81
2022-11-19T20:31:41.772Z,99761.81
2022-11-19T20:34:12.488Z,99758.13
2022-11-19T20:36:40.571Z,99764.53
2022-11-19T20:39:08.781Z,99756.41
2022-11-19T20:41:55.031Z,99756.69
2022-11-19T20:44:24.023Z,99751.13
2022-11-19T20:46:59.696Z,99756.69
2022-11-19T20:49:29.735Z,99752.22
2022-11-19T20:51:58.028Z,99749.69
2022-11-19T20:54:26.552Z,99741.00
2022-11-19T20:56:55.044Z,99742.50
2022-11-19T20:59:24.297Z,99749.75
2022-11-19T21:01:53.315Z,99757.66
2022-11-19T21:04:22.267Z,99760.81
2022-11-19T21:06:50.693Z,99747.47
2022-11-19T21:09:20.236Z,99751.56
2022-11-19T21:11:48.011Z,99743.69
2022-11-19T21:14:17.836Z,99739.25
2022-11-19T21:16:45.449Z,99732.69
2022-11-19T21:19:13.553Z,99730.59
2022-11-19T21:21:41.574Z,99723.59
2022-11-19T21:24:09.582Z,99719.97
2022-11-19T21:26:37.267Z,99717.47
2022-11-19T21:29:05.144Z,99715.12
2022-11-19T21:31:46.402Z,99722.38
2022-11-19T21:34:18.070Z,99719.78
2022-11-19T21:36:46.284Z,99710.44
2022-11-19T21:39:16.377Z,99712.13
2022-11-19T21:41:44.190Z,99701.41
2022-11-19T21:44:13.327Z,99710.06
2022-11-19T21:46:44.407Z,99709.25
2022-11-19T21:49:11.748Z,99708.00
2022-11-19T21:51:39.749Z,99701.38
2022-11-19T21:54:08.188Z,99698.63
2022-11-19T21:56:38.867Z,99696.19
2022-11-19T21:59:09.568Z,99690.38
2022-11-19T22:01:37.674Z,99696.22
2022-11-19T22:04:05.353Z,99678.22
2022-11-19T22:06:32.762Z,99678.97
2022-11-19T22:09:00.141Z,99663.97
2022-11-19T22:11:31.058Z,99649.81
2022-11-19T22:14:01.773Z,99653.28
2022-11-19T22:16:30.818Z,99650.75
2022-11-19T22:18:58.217Z,99650.25
2022-11-19T22:21:26.026Z,99652.50
2022-11-19T22:26:35.159Z,99652.97
2022-11-19T22:29:02.898Z,99667.84
2022-11-19T22:31:30.230Z,99672.31
2022-11-19T22:33:57.554Z,99665.66
2022-11-19T22:36:25.315Z,99641.25
2022-11-19T22:38:52.836Z,99627.22
2022-11-19T22:41:21.262Z,99626.16
2022-11-19T22:43:49.286Z,99623.78
2022-11-19T22:46:17.741Z,99616.00
2022-11-19T22:48:45.058Z,99611.31
2022-11-19T22:51:16.791Z,99614.09
2022-11-19T22:53:45.013Z,99625.28
2022-11-19T22:56:14.731Z,99616.47
2022-11-19T22:58:42.384Z,99626.72
2022-11-19T23:01:28.773Z,99627.13
2022-11-19T23:03:59.470Z,99631.84
2022-11-19T23:06:26.881Z,99632.94
2022-11-19T23:08:54.887Z,99647.09
2022-11-19T23:11:42.325Z,99646.97
2022-11-19T23:14:11.837Z,99651.50
2022-11-19T23:16:40.395Z,99656.06
2022-11-19T23:19:08.971Z,99647.75
2022-11-19T23:21:36.688Z,99643.31
2022-11-19T23:24:04.912Z,99636.19
2022-11-19T23:26:32.995Z,99622.63
2022-11-19T23:29:00.725Z,99597.72
2022-11-19T23:31:31.150Z,99587.28
2022-11-19T23:33:59.636Z,99597.94
2022-11-19T23:36:38.396Z,99591.59
2022-11-19T23:39:06.517Z,99597.56
2022-11-19T23:41:34.324Z,99610.78
2022-11-19T23:44:01.880Z,99608.19
2022-11-19T23:46:32.886Z,99607.69
2022-11-19T23:49:00.913Z,99607.97
2022-11-19T23:51:31.233Z,99610.38
2022-11-19T23:53:58.921Z,99616.47
2022-11-19T23:56:27.263Z,99607.59
2022-11-19T23:58:54.857Z,99588.16
